sensor_id;sensor_type;location;lat;lon;timestamp;pressure;altitude;pressure_sealevel;temperature;humidity
61119;BME280;51448;51.660;5.824;2023-03-03T00:02:08;102314.34;;;0.58;100.00
61119;BME280;51448;51.660;5.824;2023-03-03T00:04:36;102318.66;;;0.57;100.00
61119;BME280;51448;51.660;5.824;2023-03-03T00:07:04;102323.78;;;0.56;100.00
61119;BME280;51448;51.660;5.824;2023-03-03T00:09:31;102320.31;;;0.55;100.00
61119;BME280;51448;51.660;5.824;2023-03-03T00:11:59;102330.59;;;0.54;100.00
61119;BME280;51448;51.660;5.824;2023-03-03T00:14:31;102322.84;;;0.54;100.00
61119;BME280;51448;51.660;5.824;2023-03-03T00:17:11;102325.41;;;0.54;100.00
61119;BME280;51448;51.660;5.824;2023-03-03T00:19:44;102321.91;;;0.52;100.00
61119;BME280;51448;51.660;5.824;2023-03-03T00:24:59;102330.44;;;0.49;100.00
61119;BME280;51448;51.660;5.824;2023-03-03T00:27:46;102334.72;;;0.49;100.00
61119;BME280;51448;51.660;5.824;2023-03-03T00:30:23;102335.78;;;0.54;100.00
61119;BME280;51448;51.660;5.824;2023-03-03T00:32:53;102335.66;;;0.51;100.00
61119;BME280;51448;51.660;5.824;2023-03-03T00:37:57;102341.84;;;0.54;100.00
61119;BME280;51448;51.660;5.824;2023-03-03T00:40:32;102347.88;;;0.55;100.00
61119;BME280;51448;51.660;5.824;2023-03-03T00:43:24;102352.13;;;0.53;100.00
61119;BME280;51448;51.660;5.824;2023-03-03T00:45:55;102350.22;;;0.47;100.00
61119;BME280;51448;51.660;5.824;2023-03-03T00:48:41;102348.50;;;0.48;100.00
61119;BME280;51448;51.660;5.824;2023-03-03T00:53:49;102350.94;;;0.45;100.00
61119;BME280;51448;51.660;5.824;2023-03-03T00:56:17;102350.94;;;0.45;100.00
61119;BME280;51448;51.660;5.824;2023-03-03T00:58:45;102352.50;;;0.39;100.00
61119;BME280;51448;51.660;5.824;2023-03-03T01:01:16;102347.66;;;0.26;100.00
61119;BME280;51448;51.660;5.824;2023-03-03T01:03:48;102349.13;;;0.19;100.00
61119;BME280;51448;51.660;5.824;2023-03-03T01:06:16;102350.00;;;0.20;100.00
61119;BME280;51448;51.660;5.824;2023-03-03T01:08:44;102351.84;;;0.23;100.00
61119;BME280;51448;51.660;5.824;2023-03-03T01:11:14;102340.66;;;0.24;100.00
61119;BME280;51448;51.660;5.824;2023-03-03T01:13:49;102354.56;;;0.26;100.00
61119;BME280;51448;51.660;5.824;2023-03-03T01:16:19;102354.47;;;0.24;100.00
61119;BME280;51448;51.660;5.824;2023-03-03T01:18:47;102361.50;;;0.27;100.00
61119;BME280;51448;51.660;5.824;2023-03-03T01:21:15;102359.09;;;0.31;100.00
61119;BME280;51448;51.660;5.824;2023-03-03T01:23:43;102365.19;;;0.33;100.00
61119;BME280;51448;51.660;5.824;2023-03-03T01:26:10;102367.78;;;0.33;100.00
61119;BME280;51448;51.660;5.824;2023-03-03T01:28:38;102366.78;;;0.30;100.00
61119;BME280;51448;51.660;5.824;2023-03-03T01:31:06;102364.25;;;0.31;100.00
61119;BME280;51448;51.660;5.824;2023-03-03T01:33:35;102357.44;;;0.33;100.00
61119;BME280;51448;51.660;5.824;2023-03-03T01:36:03;102354.91;;;0.35;100.00
61119;BME280;51448;51.660;5.824;2023-03-03T01:38:34;102359.38;;;0.39;100.00
61119;BME280;51448;51.660;5.824;2023-03-03T01:41:03;102357.69;;;0.39;100.00
61119;BME280;51448;51.660;5.824;2023-03-03T01:43:32;102363.84;;;0.43;100.00
61119;BME280;51448;51.660;5.824;2023-03-03T01:48:42;102360.56;;;0.47;100.00
61119;BME280;51448;51.660;5.824;2023-03-03T01:54:17;102369.28;;;0.49;100.00
61119;BME280;51448;51.660;5.824;2023-03-03T01:56:50;102365.84;;;0.50;100.00
61119;BME280;51448;51.660;5.824;2023-03-03T01:59:26;102362.22;;;0.45;100.00
61119;BME280;51448;51.660;5.824;2023-03-03T02:01:58;102355.19;;;0.43;100.00
61119;BME280;51448;51.660;5.824;2023-03-03T02:04:27;102365.53;;;0.43;100.00
61119;BME280;51448;51.660;5.824;2023-03-03T02:07:00;102364.81;;;0.45;100.00
61119;BME280;51448;51.660;5.824;2023-03-03T02:09:59;102364.84;;;0.47;100.00
61119;BME280;51448;51.660;5.824;2023-03-03T02:12:53;102368.38;;;0.49;100.00
61119;BME280;51448;51.660;5.824;2023-03-03T02:15:30;102369.13;;;0.46;100.00
61119;BME280;51448;51.660;5.824;2023-03-03T02:18:10;102367.38;;;0.45;100.00
61119;BME280;51448;51.660;5.824;2023-03-03T02:26:15;102372.56;;;0.45;100.00
61119;BME280;51448;51.660;5.824;2023-03-03T02:28:48;102372.50;;;0.44;100.00
61119;BME280;51448;51.660;5.824;2023-03-03T02:31:19;102368.13;;;0.43;100.00
61119;BME280;51448;51.660;5.824;2023-03-03T02:33:51;102371.44;;;0.38;100.00
61119;BME280;51448;51.660;5.824;2023-03-03T02:36:23;102372.25;;;0.37;100.00
61119;BME280;51448;51.660;5.824;2023-03-03T02:39:04;102378.25;;;0.36;100.00
61119;BME280;51448;51.660;5.824;2023-03-03T02:44:51;102370.47;;;0.36;100.00
61119;BME280;51448;51.660;5.824;2023-03-03T02:47:18;102373.06;;;0.36;100.00
61119;BME280;51448;51.660;5.824;2023-03-03T02:49:46;102363.56;;;0.35;100.00
61119;BME280;51448;51.660;5.824;2023-03-03T02:52:14;102360.13;;;0.36;100.00
61119;BME280;51448;51.660;5.824;2023-03-03T02:54:46;102372.09;;;0.33;100.00
61119;BME280;51448;51.660;5.824;2023-03-03T02:57:14;102365.91;;;0.29;100.00
61119;BME280;51448;51.660;5.824;2023-03-03T02:59:42;102367.56;;;0.27;100.00
61119;BME280;51448;51.660;5.824;2023-03-03T03:02:12;102370.94;;;0.26;100.00
61119;BME280;51448;51.660;5.824;2023-03-03T03:04:41;102362.38;;;0.27;100.00
61119;BME280;51448;51.660;5.824;2023-03-03T03:07:14;102369.31;;;0.28;100.00
61119;BME280;51448;51.660;5.824;2023-03-03T03:09:42;102366.00;;;0.32;100.00
61119;BME280;51448;51.660;5.824;2023-03-03T03:12:11;102362.63;;;0.33;100.00
61119;BME280;51448;51.660;5.824;2023-03-03T03:14:38;102367.78;;;0.33;100.00
61119;BME280;51448;51.660;5.824;2023-03-03T03:17:07;102372.09;;;0.33;100.00
61119;BME280;51448;51.660;5.824;2023-03-03T03:19:35;102368.75;;;0.35;100.00
61119;BME280;51448;51.660;5.824;2023-03-03T03:22:03;102377.31;;;0.34;100.00
61119;BME280;51448;51.660;5.824;2023-03-03T03:24:33;102376.50;;;0.35;100.00
61119;BME280;51448;51.660;5.824;2023-03-03T03:27:05;102378.91;;;0.31;100.00
61119;BME280;51448;51.660;5.824;2023-03-03T03:29:33;102375.38;;;0.29;100.00
61119;BME280;51448;51.660;5.824;2023-03-03T03:32:01;102377.97;;;0.29;100.00
61119;BME280;51448;51.660;5.824;2023-03-03T03:34:29;102375.31;;;0.27;100.00
61119;BME280;51448;51.660;5.824;2023-03-03T03:36:58;102373.59;;;0.28;100.00
61119;BME280;51448;51.660;5.824;2023-03-03T03:39:27;102370.06;;;0.26;100.00
61119;BME280;51448;51.660;5.824;2023-03-03T03:41:56;102380.50;;;0.27;100.00
61119;BME280;51448;51.660;5.824;2023-03-03T03:44:24;102371.09;;;0.29;100.00
61119;BME280;51448;51.660;5.824;2023-03-03T03:46:53;102373.75;;;0.31;100.00
61119;BME280;51448;51.660;5.824;2023-03-03T03:49:21;102385.06;;;0.34;100.00
61119;BME280;51448;51.660;5.824;2023-03-03T03:51:50;102381.59;;;0.34;100.00
61119;BME280;51448;51.660;5.824;2023-03-03T03:54:22;102374.72;;;0.34;100.00
61119;BME280;51448;51.660;5.824;2023-03-03T03:56:51;102379.09;;;0.35;100.00
61119;BME280;51448;51.660;5.824;2023-03-03T03:59:21;102382.63;;;0.37;100.00
61119;BME280;51448;51.660;5.824;2023-03-03T04:01:49;102380.13;;;0.40;100.00
61119;BME280;51448;51.660;5.824;2023-03-03T04:04:17;102374.94;;;0.40;100.00
61119;BME280;51448;51.660;5.824;2023-03-03T04:06:45;102382.72;;;0.40;100.00
61119;BME280;51448;51.660;5.824;2023-03-03T04:09:14;102384.50;;;0.42;100.00
61119;BME280;51448;51.660;5.824;2023-03-03T04:11:43;102381.84;;;0.40;100.00
61119;BME280;51448;51.660;5.824;2023-03-03T04:14:12;102383.66;;;0.43;100.00
61119;BME280;51448;51.660;5.824;2023-03-03T04:16:40;102389.78;;;0.45;100.00
61119;BME280;51448;51.660;5.824;2023-03-03T04:19:08;102387.19;;;0.45;100.00
61119;BME280;51448;51.660;5.824;2023-03-03T04:21:38;102388.97;;;0.46;100.00
61119;BME280;51448;51.660;5.824;2023-03-03T04:24:07;102380.44;;;0.48;100.00
61119;BME280;51448;51.660;5.824;2023-03-03T04:26:35;102389.22;;;0.52;100.00
61119;BME280;51448;51.660;5.824;2023-03-03T04:29:04;102388.34;;;0.51;100.00
61119;BME280;51448;51.660;5.824;2023-03-03T04:31:33;102384.91;;;0.52;100.00
61119;BME280;51448;51.660;5.824;2023-03-03T04:34:02;102383.19;;;0.53;100.00
61119;BME280;51448;51.660;5.824;2023-03-03T04:36:30;102385.03;;;0.55;100.00
61119;BME280;51448;51.660;5.824;2023-03-03T04:38:58;102378.13;;;0.56;100.00
61119;BME280;51448;51.660;5.824;2023-03-03T04:41:26;102386.00;;;0.59;100.00
61119;BME280;51448;51.660;5.824;2023-03-03T04:43:55;102382.63;;;0.60;100.00
61119;BME280;51448;51.660;5.824;2023-03-03T04:46:22;102389.59;;;0.63;100.00
61119;BME280;51448;51.660;5.824;2023-03-03T04:48:51;102389.66;;;0.64;100.00
61119;BME280;51448;51.660;5.824;2023-03-03T04:51:20;102389.66;;;0.64;100.00
61119;BME280;51448;51.660;5.824;2023-03-03T04:53:48;102379.41;;;0.67;100.00
61119;BME280;51448;51.660;5.824;2023-03-03T04:56:16;102376.81;;;0.67;100.00
61119;BME280;51448;51.660;5.824;2023-03-03T04:58:45;102387.25;;;0.69;100.00
61119;BME280;51448;51.660;5.824;2023-03-03T05:01:12;102394.22;;;0.70;100.00
61119;BME280;51448;51.660;5.824;2023-03-03T05:03:41;102394.25;;;0.71;100.00
61119;BME280;51448;51.660;5.824;2023-03-03T05:06:09;102400.34;;;0.73;100.00
61119;BME280;51448;51.660;5.824;2023-03-03T05:08:37;102396.97;;;0.74;100.00
61119;BME280;51448;51.660;5.824;2023-03-03T05:11:05;102396.13;;;0.75;100.00
61119;BME280;51448;51.660;5.824;2023-03-03T05:13:33;102401.38;;;0.77;100.00
61119;BME280;51448;51.660;5.824;2023-03-03T05:16:01;102407.41;;;0.77;100.00
61119;BME280;51448;51.660;5.824;2023-03-03T05:18:29;102397.19;;;0.80;100.00
61119;BME280;51448;51.660;5.824;2023-03-03T05:20:57;102396.41;;;0.83;100.00
61119;BME280;51448;51.660;5.824;2023-03-03T05:23:25;102399.13;;;0.86;100.00
61119;BME280;51448;51.660;5.824;2023-03-03T05:25:53;102401.72;;;0.86;100.00
61119;BME280;51448;51.660;5.824;2023-03-03T05:28:20;102397.34;;;0.85;100.00
61119;BME280;51448;51.660;5.824;2023-03-03T05:30:49;102397.34;;;0.85;100.00
61119;BME280;51448;51.660;5.824;2023-03-03T05:33:17;102393.97;;;0.88;100.00
61119;BME280;51448;51.660;5.824;2023-03-03T05:35:45;102393.16;;;0.89;100.00
61119;BME280;51448;51.660;5.824;2023-03-03T05:38:13;102393.97;;;0.88;100.00
61119;BME280;51448;51.660;5.824;2023-03-03T05:40:41;102396.69;;;0.91;100.00
61119;BME280;51448;51.660;5.824;2023-03-03T05:43:10;102400.16;;;0.91;100.00
61119;BME280;51448;51.660;5.824;2023-03-03T05:45:37;102402.03;;;0.95;100.00
61119;BME280;51448;51.660;5.824;2023-03-03T05:48:05;102401.16;;;0.95;100.00
61119;BME280;51448;51.660;5.824;2023-03-03T05:50:35;102394.34;;;0.97;100.00
61119;BME280;51448;51.660;5.824;2023-03-03T05:53:03;102392.56;;;0.96;100.00
61119;BME280;51448;51.660;5.824;2023-03-03T05:55:31;102399.50;;;0.97;100.00
61119;BME280;51448;51.660;5.824;2023-03-03T05:57:59;102401.22;;;0.96;100.00
61119;BME280;51448;51.660;5.824;2023-03-03T06:00:27;102401.22;;;0.96;100.00
61119;BME280;51448;51.660;5.824;2023-03-03T06:02:54;102395.22;;;0.97;100.00
61119;BME280;51448;51.660;5.824;2023-03-03T06:05:22;102402.25;;;1.02;100.00
61119;BME280;51448;51.660;5.824;2023-03-03T06:07:50;102410.97;;;1.04;100.00
61119;BME280;51448;51.660;5.824;2023-03-03T06:10:17;102398.09;;;1.05;100.00
61119;BME280;51448;51.660;5.824;2023-03-03T06:12:51;102398.16;;;1.07;100.00
61119;BME280;51448;51.660;5.824;2023-03-03T06:15:18;102407.66;;;1.08;100.00
61119;BME280;51448;51.660;5.824;2023-03-03T06:17:46;102414.56;;;1.07;100.00
61119;BME280;51448;51.660;5.824;2023-03-03T06:20:14;102412.91;;;1.09;100.00
61119;BME280;51448;51.660;5.824;2023-03-03T06:22:42;102422.50;;;1.12;100.00
61119;BME280;51448;51.660;5.824;2023-03-03T06:25:09;102423.50;;;1.15;100.00
61119;BME280;51448;51.660;5.824;2023-03-03T06:27:37;102431.34;;;1.17;100.00
61119;BME280;51448;51.660;5.824;2023-03-03T06:30:06;102427.09;;;1.19;100.00
61119;BME280;51448;51.660;5.824;2023-03-03T06:32:34;102426.38;;;1.23;100.00
61119;BME280;51448;51.660;5.824;2023-03-03T06:35:02;102431.59;;;1.25;100.00
61119;BME280;51448;51.660;5.824;2023-03-03T06:37:30;102435.03;;;1.24;100.00
61119;BME280;51448;51.660;5.824;2023-03-03T06:39:58;102438.56;;;1.26;100.00
61119;BME280;51448;51.660;5.824;2023-03-03T06:42:25;102448.09;;;1.27;100.00
61119;BME280;51448;51.660;5.824;2023-03-03T06:44:53;102446.44;;;1.29;100.00
61119;BME280;51448;51.660;5.824;2023-03-03T06:47:21;102460.22;;;1.28;100.00
61119;BME280;51448;51.660;5.824;2023-03-03T06:49:49;102458.63;;;1.31;100.00
61119;BME280;51448;51.660;5.824;2023-03-03T06:52:19;102456.22;;;1.36;100.00
61119;BME280;51448;51.660;5.824;2023-03-03T06:54:53;102455.47;;;1.40;100.00
61119;BME280;51448;51.660;5.824;2023-03-03T06:57:31;102456.44;;;1.42;100.00
61119;BME280;51448;51.660;5.824;2023-03-03T07:00:17;102460.00;;;1.46;100.00
61119;BME280;51448;51.660;5.824;2023-03-03T07:03:16;102459.22;;;1.48;100.00
61119;BME280;51448;51.660;5.824;2023-03-03T07:05:45;102457.44;;;1.47;100.00
61119;BME280;51448;51.660;5.824;2023-03-03T07:08:18;102474.06;;;1.52;100.00
61119;BME280;51448;51.660;5.824;2023-03-03T07:10:49;102471.53;;;1.54;100.00
61119;BME280;51448;51.660;5.824;2023-03-03T07:13:23;102469.03;;;1.57;100.00
61119;BME280;51448;51.660;5.824;2023-03-03T07:15:55;102469.19;;;1.61;100.00
61119;BME280;51448;51.660;5.824;2023-03-03T07:18:34;102472.72;;;1.64;100.00
61119;BME280;51448;51.660;5.824;2023-03-03T07:23:51;102478.97;;;1.69;100.00
61119;BME280;51448;51.660;5.824;2023-03-03T07:26:24;102487.69;;;1.71;100.00
61119;BME280;51448;51.660;5.824;2023-03-03T07:31:35;102486.19;;;1.77;100.00
61119;BME280;51448;51.660;5.824;2023-03-03T07:37:09;102492.31;;;1.79;100.00
61119;BME280;51448;51.660;5.824;2023-03-03T07:39:43;102496.63;;;1.79;100.00
61119;BME280;51448;51.660;5.824;2023-03-03T07:42:18;102500.09;;;1.79;100.00
61119;BME280;51448;51.660;5.824;2023-03-03T07:44:57;102503.63;;;1.81;100.00
61119;BME280;51448;51.660;5.824;2023-03-03T07:47:30;102495.91;;;1.83;100.00
61119;BME280;51448;51.660;5.824;2023-03-03T07:50:18;102503.81;;;1.88;100.00
61119;BME280;51448;51.660;5.824;2023-03-03T07:52:58;102509.88;;;1.88;100.00
61119;BME280;51448;51.660;5.824;2023-03-03T07:55:32;102503.81;;;1.88;100.00
61119;BME280;51448;51.660;5.824;2023-03-03T08:03:15;102505.53;;;1.87;100.00
61119;BME280;51448;51.660;5.824;2023-03-03T08:05:47;102512.50;;;1.88;100.00
61119;BME280;51448;51.660;5.824;2023-03-03T08:08:28;102509.13;;;1.91;100.00
61119;BME280;51448;51.660;5.824;2023-03-03T08:11:03;102512.69;;;1.94;100.00
61119;BME280;51448;51.660;5.824;2023-03-03T08:13:37;102515.41;;;1.97;100.00
61119;BME280;51448;51.660;5.824;2023-03-03T08:18:45;102515.72;;;2.07;100.00
61119;BME280;51448;51.660;5.824;2023-03-03T08:21:22;102522.78;;;2.11;100.00
61119;BME280;51448;51.660;5.824;2023-03-03T08:23:53;102525.44;;;2.12;100.00
61119;BME280;51448;51.660;5.824;2023-03-03T08:26:22;102526.41;;;2.16;100.00
61119;BME280;51448;51.660;5.824;2023-03-03T08:28:52;102525.63;;;2.18;100.00
61119;BME280;51448;51.660;5.824;2023-03-03T08:31:22;102536.13;;;2.21;100.00
61119;BME280;51448;51.660;5.824;2023-03-03T08:34:07;102533.53;;;2.21;100.00
61119;BME280;51448;51.660;5.824;2023-03-03T08:36:35;102542.19;;;2.22;100.00
61119;BME280;51448;51.660;5.824;2023-03-03T08:39:03;102538.88;;;2.26;100.00
61119;BME280;51448;51.660;5.824;2023-03-03T08:41:31;102541.56;;;2.29;100.00
61119;BME280;51448;51.660;5.824;2023-03-03T08:43:58;102547.69;;;2.31;100.00
61119;BME280;51448;51.660;5.824;2023-03-03T08:46:26;102549.47;;;2.32;100.00
61119;BME280;51448;51.660;5.824;2023-03-03T08:48:55;102545.28;;;2.37;100.00
61119;BME280;51448;51.660;5.824;2023-03-03T08:51:22;102544.47;;;2.38;100.00
61119;BME280;51448;51.660;5.824;2023-03-03T08:53:51;102545.50;;;2.44;100.00
61119;BME280;51448;51.660;5.824;2023-03-03T08:56:19;102545.56;;;2.45;100.00
61119;BME280;51448;51.660;5.824;2023-03-03T08:58:49;102548.28;;;2.50;100.00
61119;BME280;51448;51.660;5.824;2023-03-03T09:01:30;102551.75;;;2.49;100.00
61119;BME280;51448;51.660;5.824;2023-03-03T09:03:59;102551.78;;;2.50;100.00
61119;BME280;51448;51.660;5.824;2023-03-03T09:06:27;102555.41;;;2.55;100.00
61119;BME280;51448;51.660;5.824;2023-03-03T09:08:54;102557.34;;;2.61;100.00
61119;BME280;51448;51.660;5.824;2023-03-03T09:11:26;102558.41;;;2.68;100.00
61119;BME280;51448;51.660;5.824;2023-03-03T09:14:09;102560.22;;;2.70;99.92
61119;BME280;51448;51.660;5.824;2023-03-03T09:16:41;102555.06;;;2.72;99.85
61119;BME280;51448;51.660;5.824;2023-03-03T09:22:00;102566.66;;;2.81;100.00
61119;BME280;51448;51.660;5.824;2023-03-03T09:24:41;102562.38;;;2.84;99.01
61119;BME280;51448;51.660;5.824;2023-03-03T09:27:29;102571.91;;;2.83;99.10
61119;BME280;51448;51.660;5.824;2023-03-03T09:30:45;102567.56;;;2.84;99.32
61119;BME280;51448;51.660;5.824;2023-03-03T09:32:55;102575.44;;;2.87;99.26
61119;BME280;51448;51.660;5.824;2023-03-03T09:35:35;102573.03;;;2.93;99.01
61119;BME280;51448;51.660;5.824;2023-03-03T09:38:20;102563.69;;;2.98;99.07
61119;BME280;51448;51.660;5.824;2023-03-03T09:41:06;102570.75;;;3.02;99.09
61119;BME280;51448;51.660;5.824;2023-03-03T09:44:28;102575.25;;;3.08;97.89
61119;BME280;51448;51.660;5.824;2023-03-03T09:53:16;102575.47;;;3.15;97.37
61119;BME280;51448;51.660;5.824;2023-03-03T09:56:40;102579.06;;;3.19;96.66
61119;BME280;51448;51.660;5.824;2023-03-03T09:59:37;102585.19;;;3.21;96.86
61119;BME280;51448;51.660;5.824;2023-03-03T10:02:34;102580.84;;;3.21;96.68
61119;BME280;51448;51.660;5.824;2023-03-03T10:05:44;102586.22;;;3.26;97.08
61119;BME280;51448;51.660;5.824;2023-03-03T10:11:35;102587.53;;;3.42;97.19
61119;BME280;51448;51.660;5.824;2023-03-03T10:14:16;102584.28;;;3.49;96.90
61119;BME280;51448;51.660;5.824;2023-03-03T10:21:04;102576.16;;;3.69;96.25
61119;BME280;51448;51.660;5.824;2023-03-03T10:24:04;102576.50;;;3.79;96.11
61119;BME280;51448;51.660;5.824;2023-03-03T10:26:50;102581.88;;;3.87;95.63
61119;BME280;51448;51.660;5.824;2023-03-03T10:39:18;102578.03;;;4.05;92.90
61119;BME280;51448;51.660;5.824;2023-03-03T10:42:06;102582.53;;;4.10;93.92
61119;BME280;51448;51.660;5.824;2023-03-03T10:45:22;102586.16;;;4.17;93.67
61119;BME280;51448;51.660;5.824;2023-03-03T10:57:27;102582.72;;;4.53;93.76
61119;BME280;51448;51.660;5.824;2023-03-03T11:00:34;102580.13;;;4.53;93.30
61119;BME280;51448;51.660;5.824;2023-03-03T11:09:33;102586.34;;;4.58;93.06
61119;BME280;51448;51.660;5.824;2023-03-03T11:21:57;102576.69;;;4.90;92.67
61119;BME280;51448;51.660;5.824;2023-03-03T11:31:18;102568.84;;;4.89;90.56
61119;BME280;51448;51.660;5.824;2023-03-03T11:34:08;102570.63;;;4.91;90.93
61119;BME280;51448;51.660;5.824;2023-03-03T11:37:09;102560.38;;;4.99;90.85
61119;BME280;51448;51.660;5.824;2023-03-03T11:39:44;102558.97;;;5.13;90.87
61119;BME280;51448;51.660;5.824;2023-03-03T11:45:17;102566.06;;;5.20;88.18
61119;BME280;51448;51.660;5.824;2023-03-03T11:48:04;102558.34;;;5.25;89.02
61119;BME280;51448;51.660;5.824;2023-03-03T11:50:49;102555.88;;;5.31;89.48
61119;BME280;51448;51.660;5.824;2023-03-03T11:56:22;102561.00;;;5.28;89.11
61119;BME280;51448;51.660;5.824;2023-03-03T12:02:00;102558.22;;;5.20;89.11
61119;BME280;51448;51.660;5.824;2023-03-03T12:04:48;102546.22;;;5.29;89.46
61119;BME280;51448;51.660;5.824;2023-03-03T12:07:31;102544.03;;;5.49;89.43
61119;BME280;51448;51.660;5.824;2023-03-03T12:14:07;102538.88;;;5.96;87.27
61119;BME280;51448;51.660;5.824;2023-03-03T12:16:51;102538.28;;;6.11;86.98
61119;BME280;51448;51.660;5.824;2023-03-03T12:19:42;102534.38;;;6.36;87.58
61119;BME280;51448;51.660;5.824;2023-03-03T12:22:24;102533.78;;;6.54;87.33
61119;BME280;51448;51.660;5.824;2023-03-03T12:30:58;102530.78;;;6.85;86.14
61119;BME280;51448;51.660;5.824;2023-03-03T12:45:57;102513.47;;;6.97;83.80
61119;BME280;51448;51.660;5.824;2023-03-03T12:54:15;102509.28;;;7.08;82.12
61119;BME280;51448;51.660;5.824;2023-03-03T12:57:11;102511.09;;;7.15;81.67
61119;BME280;51448;51.660;5.824;2023-03-03T13:02:44;102506.06;;;7.29;80.76
61119;BME280;51448;51.660;5.824;2023-03-03T13:08:45;102503.66;;;7.48;81.58
61119;BME280;51448;51.660;5.824;2023-03-03T13:11:39;102503.81;;;7.61;80.72
61119;BME280;51448;51.660;5.824;2023-03-03T13:14:16;102503.91;;;7.71;82.05
61119;BME280;51448;51.660;5.824;2023-03-03T13:17:24;102498.84;;;7.89;81.35
61119;BME280;51448;51.660;5.824;2023-03-03T13:33:37;102483.88;;;8.80;74.53
61119;BME280;51448;51.660;5.824;2023-03-03T13:36:06;102485.50;;;8.62;75.90
61119;BME280;51448;51.660;5.824;2023-03-03T13:38:49;102478.47;;;8.57;75.89
61119;BME280;51448;51.660;5.824;2023-03-03T13:41:29;102483.75;;;8.60;76.25
61119;BME280;51448;51.660;5.824;2023-03-03T13:44:15;102479.41;;;8.63;76.95
61119;BME280;51448;51.660;5.824;2023-03-03T13:47:00;102481.19;;;8.71;76.95
61119;BME280;51448;51.660;5.824;2023-03-03T13:53:24;102473.34;;;8.78;75.93
61119;BME280;51448;51.660;5.824;2023-03-03T14:11:06;102461.16;;;8.86;74.25
61119;BME280;51448;51.660;5.824;2023-03-03T14:13:54;102466.41;;;8.86;74.13
61119;BME280;51448;51.660;5.824;2023-03-03T14:19:24;102460.31;;;8.91;75.60
61119;BME280;51448;51.660;5.824;2023-03-03T14:22:16;102461.16;;;8.90;74.93
61119;BME280;51448;51.660;5.824;2023-03-03T14:25:03;102456.78;;;8.82;74.01
61119;BME280;51448;51.660;5.824;2023-03-03T14:35:39;102454.06;;;8.73;74.80
61119;BME280;51448;51.660;5.824;2023-03-03T14:38:17;102455.84;;;8.77;74.28
61119;BME280;51448;51.660;5.824;2023-03-03T14:40:48;102452.38;;;8.78;73.94
61119;BME280;51448;51.660;5.824;2023-03-03T14:43:35;102447.13;;;8.78;73.65
61119;BME280;51448;51.660;5.824;2023-03-03T14:48:57;102448.91;;;8.85;73.47
61119;BME280;51448;51.660;5.824;2023-03-03T14:54:15;102434.06;;;8.95;73.34
61119;BME280;51448;51.660;5.824;2023-03-03T14:57:22;102435.88;;;9.05;73.87
61119;BME280;51448;51.660;5.824;2023-03-03T15:03:44;102428.88;;;9.06;72.44
61119;BME280;51448;51.660;5.824;2023-03-03T15:05:55;102429.72;;;8.99;71.76
61119;BME280;51448;51.660;5.824;2023-03-03T15:08:33;102426.19;;;8.94;70.39
61119;BME280;51448;51.660;5.824;2023-03-03T15:11:29;102427.06;;;8.86;70.77
61119;BME280;51448;51.660;5.824;2023-03-03T15:14:10;102427.84;;;8.73;72.29
61119;BME280;51448;51.660;5.824;2023-03-03T15:16:41;102419.09;;;8.68;73.58
61119;BME280;51448;51.660;5.824;2023-03-03T15:19:43;102415.59;;;8.71;73.69
61119;BME280;51448;51.660;5.824;2023-03-03T15:39:41;102385.97;;;8.93;72.73
61119;BME280;51448;51.660;5.824;2023-03-03T15:45:17;102383.28;;;8.76;73.82
61119;BME280;51448;51.660;5.824;2023-03-03T15:48:40;102392.84;;;8.68;73.06
61119;BME280;51448;51.660;5.824;2023-03-03T15:51:40;102388.44;;;8.62;73.95
61119;BME280;51448;51.660;5.824;2023-03-03T15:54:36;102384.03;;;8.57;74.36
61119;BME280;51448;51.660;5.824;2023-03-03T15:57:28;102385.78;;;8.55;73.97
61119;BME280;51448;51.660;5.824;2023-03-03T16:03:43;102379.59;;;8.42;74.39
61119;BME280;51448;51.660;5.824;2023-03-03T16:06:19;102382.19;;;8.40;74.90
61119;BME280;51448;51.660;5.824;2023-03-03T16:08:57;102373.44;;;8.40;74.05
61119;BME280;51448;51.660;5.824;2023-03-03T16:11:45;102371.72;;;8.39;74.73
61119;BME280;51448;51.660;5.824;2023-03-03T16:14:51;102373.44;;;8.40;74.52
61119;BME280;51448;51.660;5.824;2023-03-03T16:21:17;102376.91;;;8.31;75.28
61119;BME280;51448;51.660;5.824;2023-03-03T16:23:58;102383.88;;;8.29;75.50
61119;BME280;51448;51.660;5.824;2023-03-03T16:26:52;102382.09;;;8.28;75.38
61119;BME280;51448;51.660;5.824;2023-03-03T16:32:55;102379.41;;;8.14;75.37
61119;BME280;51448;51.660;5.824;2023-03-03T16:36:17;102387.22;;;8.10;74.43
61119;BME280;51448;51.660;5.824;2023-03-03T16:39:16;102389.78;;;7.99;74.58
61119;BME280;51448;51.660;5.824;2023-03-03T16:42:38;102388.81;;;7.89;74.87
61119;BME280;51448;51.660;5.824;2023-03-03T16:45:20;102394.84;;;7.77;74.39
61119;BME280;51448;51.660;5.824;2023-03-03T16:51:25;102405.09;;;7.54;75.00
61119;BME280;51448;51.660;5.824;2023-03-03T16:54:12;102407.72;;;7.51;75.14
61119;BME280;51448;51.660;5.824;2023-03-03T16:57:02;102412.88;;;7.45;74.57
61119;BME280;51448;51.660;5.824;2023-03-03T16:59:59;102421.50;;;7.38;74.91
61119;BME280;51448;51.660;5.824;2023-03-03T17:05:53;102418.72;;;7.18;75.31
61119;BME280;51448;51.660;5.824;2023-03-03T17:17:42;102423.50;;;6.84;76.24
61119;BME280;51448;51.660;5.824;2023-03-03T17:37:45;102444.72;;;6.41;76.71
61119;BME280;51448;51.660;5.824;2023-03-03T17:40:36;102442.88;;;6.34;76.88
61119;BME280;51448;51.660;5.824;2023-03-03T17:43:16;102450.69;;;6.33;76.85
61119;BME280;51448;51.660;5.824;2023-03-03T17:45:52;102454.97;;;6.29;77.40
61119;BME280;51448;51.660;5.824;2023-03-03T17:49:21;102458.38;;;6.23;77.44
61119;BME280;51448;51.660;5.824;2023-03-03T17:52:29;102459.97;;;6.14;77.80
61119;BME280;51448;51.660;5.824;2023-03-03T18:01:43;102476.25;;;5.97;77.96
61119;BME280;51448;51.660;5.824;2023-03-03T18:04:44;102471.78;;;5.93;78.14